Time;durP1;ratioP1;P1;durP2;ratioP2;P2;SDS_P1;SDS_P2;PMS_P1;PMS_P2;Temp;Humidity;BMP_temperature;BMP_pressure;BME280_temperature;BME280_humidity;BME280_pressure;Samples;Min_cycle;Max_cycle;Signal;HPM_P1;HPM_P2
2022/12/06 00:01:07;;;;;;;6.43;4.60;;;4.80;99.90;;;;;;5075600;28;20572;-67
2022/12/06 00:03:36;;;;;;;4.97;3.78;;;4.80;99.90;;;;;;5074724;28;20204;-67
2022/12/06 00:06:08;;;;;;;4.82;3.97;;;4.70;99.90;;;;;;5075573;28;20630;-68
2022/12/06 00:08:36;;;;;;;5.00;4.00;;;4.80;99.90;;;;;;5075217;28;20184;-68
2022/12/06 00:11:05;;;;;;;3.90;3.60;;;4.80;99.90;;;;;;5075693;28;20200;-67
2022/12/06 00:13:33;;;;;;;4.38;3.97;;;4.80;99.90;;;;;;5074845;28;20582;-68
2022/12/06 00:16:03;;;;;;;4.68;4.28;;;4.80;99.90;;;;;;5086075;28;20195;-67
2022/12/06 00:18:32;;;;;;;3.80;3.50;;;4.80;99.90;;;;;;5076139;28;20212;-67
2022/12/06 00:21:08;;;;;;;4.45;3.83;;;4.80;99.90;;;;;;5088868;28;20191;-67
2022/12/06 00:23:37;;;;;;;7.95;4.80;;;4.90;99.90;;;;;;5082635;28;20558;-67
2022/12/06 00:26:06;;;;;;;4.85;4.32;;;4.90;99.90;;;;;;5094321;28;20242;-67
2022/12/06 00:28:35;;;;;;;4.97;4.20;;;4.90;99.90;;;;;;5114587;28;20675;-68
2022/12/06 00:31:05;;;;;;;5.70;4.05;;;4.90;99.90;;;;;;5109441;28;20255;-67
2022/12/06 00:33:34;;;;;;;5.00;4.50;;;4.90;99.90;;;;;;5075578;28;20216;-67
2022/12/06 00:36:03;;;;;;;8.55;4.50;;;4.90;99.90;;;;;;5075225;28;20196;-68
2022/12/06 00:38:33;;;;;;;3.83;3.53;;;4.90;99.90;;;;;;5074878;28;20287;-67
2022/12/06 00:41:03;;;;;;;4.80;3.50;;;4.90;99.90;;;;;;5079483;28;20203;-68
2022/12/06 00:43:32;;;;;;;3.70;3.50;;;4.90;99.90;;;;;;5077952;28;20200;-68
2022/12/06 00:46:01;;;;;;;3.72;3.42;;;5.00;99.90;;;;;;5094501;28;20196;-68
2022/12/06 00:48:29;;;;;;;4.80;4.40;;;4.90;99.90;;;;;;5094683;28;20715;-67
2022/12/06 00:50:57;;;;;;;4.60;4.20;;;4.90;99.90;;;;;;5088839;28;20204;-67
2022/12/06 00:53:25;;;;;;;6.38;3.83;;;4.90;99.90;;;;;;5087047;28;20220;-68
2022/12/06 00:55:55;;;;;;;4.60;4.18;;;4.90;99.90;;;;;;5082900;28;20265;-68
2022/12/06 00:58:23;;;;;;;4.80;3.90;;;4.90;99.90;;;;;;5095019;28;20281;-68
2022/12/06 01:00:51;;;;;;;4.43;3.90;;;4.90;99.90;;;;;;5080109;28;20212;-68
2022/12/06 01:03:19;;;;;;;4.13;3.83;;;4.90;99.90;;;;;;5089254;28;20202;-69
2022/12/06 01:05:50;;;;;;;4.07;3.67;;;5.00;99.90;;;;;;5094438;28;20199;-68
2022/12/06 01:08:18;;;;;;;3.20;3.00;;;5.00;99.90;;;;;;5091146;28;20199;-68
2022/12/06 01:10:52;;;;;;;5.38;3.40;;;5.00;99.90;;;;;;5081214;28;20593;-68
2022/12/06 01:13:22;;;;;;;4.30;3.60;;;5.00;99.90;;;;;;5082018;28;20618;-69
2022/12/06 01:15:49;;;;;;;3.80;3.50;;;5.10;99.90;;;;;;5096125;28;20247;-68
2022/12/06 01:18:17;;;;;;;4.60;4.00;;;5.10;99.90;;;;;;5107710;28;20596;-68
2022/12/06 01:20:45;;;;;;;4.07;3.78;;;5.00;99.90;;;;;;5082067;28;20606;-68
2022/12/06 01:23:13;;;;;;;4.25;3.83;;;5.10;99.90;;;;;;5113709;28;20213;-67
2022/12/06 01:25:50;;;;;;;4.32;3.95;;;5.10;99.90;;;;;;5098587;28;20236;-68
2022/12/06 01:28:18;;;;;;;4.15;3.75;;;5.10;99.90;;;;;;5090460;28;20256;-68
2022/12/06 01:30:47;;;;;;;3.45;3.17;;;5.10;99.90;;;;;;5108785;28;20195;-68
2022/12/06 01:33:15;;;;;;;4.35;3.95;;;5.20;99.90;;;;;;5108279;28;20217;-68
2022/12/06 01:35:43;;;;;;;3.70;3.40;;;5.20;99.90;;;;;;5111028;28;20203;-67
2022/12/06 01:38:11;;;;;;;6.70;4.20;;;5.20;99.90;;;;;;5078921;28;20230;-66
2022/12/06 01:40:40;;;;;;;6.25;4.32;;;5.20;99.90;;;;;;5073689;28;20622;-68
2022/12/06 01:43:30;;;;;;;7.03;4.70;;;5.20;99.90;;;;;;5073501;28;20196;-67
2022/12/06 01:46:03;;;;;;;4.60;3.67;;;5.20;99.90;;;;;;5085828;28;20183;-67
2022/12/06 01:48:33;;;;;;;3.50;3.30;;;5.20;99.90;;;;;;5114238;28;20202;-67
2022/12/06 01:51:01;;;;;;;3.28;3.08;;;5.20;99.90;;;;;;5113515;28;20568;-67
2022/12/06 01:53:30;;;;;;;4.88;4.20;;;5.20;99.90;;;;;;5078864;28;20556;-67
2022/12/06 01:55:58;;;;;;;3.70;3.20;;;5.20;99.90;;;;;;5089747;28;20201;-67
2022/12/06 01:58:32;;;;;;;4.22;3.80;;;5.10;99.90;;;;;;5085119;28;20196;-68
2022/12/06 02:01:01;;;;;;;3.65;3.35;;;5.10;99.90;;;;;;5093478;28;20206;-68
2022/12/06 02:03:33;;;;;;;3.95;3.55;;;5.00;99.90;;;;;;5072319;28;20207;-67
2022/12/06 02:06:03;;;;;;;4.38;3.88;;;5.00;99.90;;;;;;5071969;28;20613;-68
2022/12/06 02:08:32;;;;;;;4.53;4.13;;;5.00;99.90;;;;;;5073147;28;20212;-68
2022/12/06 02:11:02;;;;;;;4.28;3.97;;;4.90;99.90;;;;;;5073054;28;20204;-67
2022/12/06 02:13:31;;;;;;;4.30;3.78;;;4.90;99.90;;;;;;5074636;28;20726;-67
2022/12/06 02:16:13;;;;;;;4.30;3.30;;;4.90;99.90;;;;;;5092953;28;20206;-67
2022/12/06 02:18:47;;;;;;;4.45;3.40;;;4.90;99.90;;;;;;5092824;28;20192;-67
2022/12/06 02:21:25;;;;;;;4.28;3.22;;;4.90;99.90;;;;;;5093142;28;20183;-67
2022/12/06 02:24:38;;;;;;;4.38;3.97;;;4.90;99.90;;;;;;5072966;28;20196;-68
2022/12/06 02:27:25;;;;;;;4.20;3.90;;;5.00;99.90;;;;;;5072552;28;20232;-68
2022/12/06 02:30:07;;;;;;;4.07;3.78;;;5.00;99.90;;;;;;5077175;28;20195;-68
2022/12/06 02:32:45;;;;;;;5.05;4.20;;;5.00;99.90;;;;;;5090680;28;20210;-67
2022/12/06 02:35:20;;;;;;;4.47;3.72;;;5.00;99.90;;;;;;5091581;28;20230;-68
2022/12/06 02:37:53;;;;;;;4.20;3.80;;;5.00;99.90;;;;;;5092708;28;20186;-68
2022/12/06 02:40:25;;;;;;;4.50;3.83;;;5.00;99.90;;;;;;5083563;28;20191;-67
2022/12/06 02:42:58;;;;;;;4.47;4.07;;;5.00;99.90;;;;;;5087740;28;20245;-67
2022/12/06 02:45:29;;;;;;;3.75;3.45;;;5.10;99.90;;;;;;5077424;28;20185;-68
2022/12/06 02:48:02;;;;;;;4.13;3.83;;;5.10;99.90;;;;;;5075497;28;20626;-67
2022/12/06 02:50:32;;;;;;;3.72;3.42;;;5.00;99.90;;;;;;5092322;28;20191;-67
2022/12/06 02:53:02;;;;;;;4.45;4.05;;;5.00;99.90;;;;;;5089907;28;20634;-67
2022/12/06 02:55:31;;;;;;;3.92;3.63;;;5.00;99.90;;;;;;5072518;28;20736;-68
2022/12/06 02:57:59;;;;;;;3.72;3.42;;;5.10;99.90;;;;;;5081224;28;20203;-68
2022/12/06 03:00:37;;;;;;;4.05;3.75;;;5.10;99.90;;;;;;5092147;28;20207;-68
2022/12/06 03:03:34;;;;;;;5.85;4.47;;;5.00;99.90;;;;;;5097908;28;20198;-68
2022/12/06 03:06:18;;;;;;;4.38;3.97;;;4.90;99.90;;;;;;5078324;28;20260;-68
2022/12/06 03:08:57;;;;;;;6.88;3.65;;;4.90;99.90;;;;;;5090439;28;20653;-68
2022/12/06 03:11:31;;;;;;;4.20;3.90;;;5.00;99.90;;;;;;5090309;28;20650;-68
2022/12/06 03:14:02;;;;;;;3.83;3.53;;;5.00;99.90;;;;;;5088509;28;20649;-67
2022/12/06 03:16:35;;;;;;;6.22;3.80;;;5.10;99.90;;;;;;5089088;28;20663;-67
2022/12/06 03:19:08;;;;;;;3.50;3.30;;;5.00;99.90;;;;;;5077140;28;20216;-67
2022/12/06 03:21:40;;;;;;;5.03;3.97;;;5.00;99.90;;;;;;5081317;28;20245;-67
2022/12/06 03:24:12;;;;;;;4.50;3.97;;;4.90;99.90;;;;;;5078564;28;20208;-67
2022/12/06 03:26:42;;;;;;;3.90;3.60;;;5.00;99.90;;;;;;5068460;28;20255;-67
2022/12/06 03:29:12;;;;;;;5.45;4.10;;;5.00;99.90;;;;;;5072342;28;20265;-68
2022/12/06 03:31:41;;;;;;;8.10;6.72;;;5.00;99.90;;;;;;5082236;28;20195;-67
2022/12/06 03:34:14;;;;;;;5.07;4.57;;;5.00;99.90;;;;;;5094460;28;20214;-68
2022/12/06 03:36:43;;;;;;;7.53;6.90;;;5.10;99.90;;;;;;5091404;28;20190;-67
2022/12/06 03:39:16;;;;;;;26.45;21.30;;;5.10;99.90;;;;;;5109222;28;20210;-67
2022/12/06 03:41:51;;;;;;;9.40;8.40;;;5.10;99.90;;;;;;5111315;28;20199;-67
2022/12/06 03:44:20;;;;;;;7.47;6.78;;;5.10;99.90;;;;;;5089821;28;20195;-67
2022/12/06 03:46:51;;;;;;;7.78;6.97;;;5.10;99.90;;;;;;5086104;28;20204;-67
2022/12/06 03:49:26;;;;;;;5.03;4.40;;;5.10;99.90;;;;;;5079323;28;20308;-67
2022/12/06 03:51:54;;;;;;;5.03;4.60;;;5.10;99.90;;;;;;5089317;28;20195;-67
2022/12/06 03:54:22;;;;;;;4.68;3.97;;;5.10;99.90;;;;;;5076403;28;20617;-67
2022/12/06 03:56:50;;;;;;;4.30;3.95;;;5.00;99.90;;;;;;5074475;28;20205;-67
2022/12/06 03:59:18;;;;;;;5.22;4.60;;;4.90;99.90;;;;;;5074515;28;20234;-68
2022/12/06 04:01:46;;;;;;;3.92;3.72;;;4.90;99.90;;;;;;5089837;28;20195;-68
2022/12/06 04:04:14;;;;;;;8.15;4.97;;;4.80;99.90;;;;;;5094618;28;20207;-66
2022/12/06 04:06:43;;;;;;;5.35;4.60;;;4.80;99.90;;;;;;5095602;28;20478;-68
2022/12/06 04:11:56;;;;;;;17.23;11.50;;;4.80;99.90;;;;;;5095721;28;20203;-67
2022/12/06 04:14:31;;;;;;;23.63;15.13;;;4.90;99.90;;;;;;5085963;28;20281;-67
2022/12/06 04:19:44;;;;;;;6.90;5.65;;;4.90;99.90;;;;;;5095212;28;20511;-67
2022/12/06 04:24:59;;;;;;;37.35;28.20;;;4.90;99.90;;;;;;5075314;28;20233;-68
2022/12/06 04:38:44;;;;;;;13.65;7.30;;;4.90;99.90;;;;;;5052299;28;20204;-67
2022/12/06 04:43:40;;;;;;;6.22;4.97;;;4.90;99.90;;;;;;5063475;28;20610;-67
2022/12/06 04:44:01;;;;;;;8.20;5.15;;;4.90;99.90;;;;;;5114880;28;20206;-67
2022/12/06 04:46:28;;;;;;;11.70;7.82;;;4.90;99.90;;;;;;5115037;28;20209;-67
2022/12/06 04:48:57;;;;;;;11.75;8.23;;;4.90;99.90;;;;;;5090778;28;20202;-67
2022/12/06 04:51:25;;;;;;;7.95;5.18;;;4.80;99.90;;;;;;5094238;28;20195;-68
2022/12/06 04:53:55;;;;;;;7.85;5.55;;;4.80;99.90;;;;;;5093228;28;20199;-67
2022/12/06 04:56:23;;;;;;;7.20;6.20;;;4.90;99.90;;;;;;5063169;28;20211;-67
2022/12/06 04:58:51;;;;;;;6.85;4.72;;;4.90;99.90;;;;;;5074619;28;20207;-67
2022/12/06 05:01:19;;;;;;;5.88;4.70;;;4.90;99.90;;;;;;5074061;28;20199;-67
2022/12/06 05:03:46;;;;;;;6.28;5.57;;;4.80;99.90;;;;;;5072630;28;20203;-67
2022/12/06 05:06:15;;;;;;;5.57;5.13;;;4.80;99.90;;;;;;5075200;28;20610;-67
2022/12/06 05:08:43;;;;;;;7.50;5.40;;;4.80;99.90;;;;;;5083299;28;20210;-67
2022/12/06 05:11:12;;;;;;;8.18;4.53;;;4.80;99.90;;;;;;5073789;28;20204;-68
2022/12/06 05:13:40;;;;;;;7.72;6.38;;;4.80;99.90;;;;;;5079897;28;20202;-67
2022/12/06 05:16:10;;;;;;;9.07;7.30;;;4.80;99.90;;;;;;5075270;28;20212;-67
2022/12/06 05:18:38;;;;;;;11.23;9.45;;;4.80;99.90;;;;;;5074054;28;20196;-67
2022/12/06 05:21:08;;;;;;;8.82;7.85;;;4.90;99.90;;;;;;5087447;28;20199;-67
2022/12/06 05:23:36;;;;;;;12.52;7.70;;;4.80;99.90;;;;;;5094292;28;20234;-67
2022/12/06 05:26:06;;;;;;;5.60;4.68;;;4.80;99.90;;;;;;5103152;28;20212;-67
2022/12/06 05:28:36;;;;;;;6.88;5.05;;;4.70;99.90;;;;;;5076780;28;20204;-68
2022/12/06 05:31:04;;;;;;;9.05;6.15;;;4.70;99.90;;;;;;5074386;28;20208;-67
2022/12/06 05:33:32;;;;;;;9.10;4.43;;;4.70;99.90;;;;;;5074980;28;20204;-68
2022/12/06 05:36:00;;;;;;;7.68;5.18;;;4.70;99.90;;;;;;5089348;28;20215;-67
2022/12/06 05:38:28;;;;;;;7.57;4.97;;;4.70;99.90;;;;;;5113270;28;20206;-68
2022/12/06 05:40:55;;;;;;;7.20;4.63;;;4.70;99.90;;;;;;5114192;28;20657;-66
2022/12/06 05:43:23;;;;;;;7.15;4.45;;;4.70;99.90;;;;;;5112979;28;20199;-67
2022/12/06 05:45:53;;;;;;;4.80;4.30;;;4.70;99.90;;;;;;5113769;28;20670;-67
2022/12/06 05:48:21;;;;;;;11.07;5.13;;;4.70;99.90;;;;;;5110731;28;20239;-68
2022/12/06 05:50:50;;;;;;;7.30;4.32;;;4.80;99.90;;;;;;5099669;28;20195;-68
2022/12/06 05:53:18;;;;;;;6.97;4.00;;;4.80;99.90;;;;;;5092644;28;20195;-67
2022/12/06 05:55:46;;;;;;;5.00;4.38;;;4.70;99.90;;;;;;5092479;28;20569;-67
2022/12/06 05:58:14;;;;;;;5.65;3.90;;;4.70;99.90;;;;;;5082413;28;20192;-68
2022/12/06 06:00:45;;;;;;;5.78;4.43;;;4.80;99.90;;;;;;5066417;28;20199;-67
2022/12/06 06:03:14;;;;;;;6.40;4.45;;;4.80;99.90;;;;;;5092523;28;20648;-69
2022/12/06 06:05:47;;;;;;;6.68;4.63;;;4.80;99.90;;;;;;5076729;28;20277;-68
2022/12/06 06:08:15;;;;;;;4.85;3.50;;;4.90;99.90;;;;;;5090825;28;20328;-68
2022/12/06 06:10:44;;;;;;;6.00;3.92;;;4.90;99.90;;;;;;5093669;28;20199;-67
2022/12/06 06:13:12;;;;;;;6.45;4.22;;;4.90;99.90;;;;;;5099311;28;20251;-67
2022/12/06 06:15:40;;;;;;;4.72;4.00;;;4.90;99.90;;;;;;5102012;28;20774;-68
2022/12/06 06:18:07;;;;;;;4.00;3.40;;;4.90;99.90;;;;;;5087216;28;20187;-67
2022/12/06 06:20:37;;;;;;;3.90;3.60;;;4.90;99.90;;;;;;5092959;28;20253;-68
2022/12/06 06:23:05;;;;;;;5.07;3.67;;;4.90;99.90;;;;;;5090985;28;20711;-67
2022/12/06 06:25:32;;;;;;;5.15;4.55;;;4.80;99.90;;;;;;5096089;28;20219;-68
2022/12/06 06:28:00;;;;;;;3.92;3.50;;;4.80;99.90;;;;;;5089996;28;20191;-68
2022/12/06 06:30:29;;;;;;;4.10;3.70;;;4.70;99.90;;;;;;5093627;28;20195;-68
2022/12/06 06:32:57;;;;;;;4.32;3.92;;;4.70;99.90;;;;;;5054375;28;20651;-68
2022/12/06 06:35:25;;;;;;;6.72;4.80;;;4.70;99.90;;;;;;5088006;28;20192;-68
2022/12/06 06:37:54;;;;;;;4.53;4.13;;;4.70;99.90;;;;;;5091541;28;20604;-68
2022/12/06 06:40:22;;;;;;;8.45;6.32;;;4.70;99.90;;;;;;5081964;28;20459;-67
2022/12/06 06:42:50;;;;;;;6.15;5.35;;;4.70;99.90;;;;;;5088995;28;20297;-68
2022/12/06 06:45:17;;;;;;;5.43;4.93;;;4.70;99.90;;;;;;5073787;28;20670;-67
2022/12/06 06:47:45;;;;;;;5.22;4.13;;;4.70;99.90;;;;;;5083001;28;20211;-67
2022/12/06 06:50:13;;;;;;;4.80;4.18;;;4.70;99.90;;;;;;5091858;28;20202;-68
2022/12/06 06:52:42;;;;;;;4.72;4.22;;;4.70;99.90;;;;;;5093818;28;20666;-68
2022/12/06 06:55:11;;;;;;;4.30;3.90;;;4.60;99.90;;;;;;5092802;28;20191;-67
2022/12/06 06:57:40;;;;;;;4.50;4.10;;;4.60;99.90;;;;;;5091177;28;20212;-67
2022/12/06 07:00:09;;;;;;;5.00;4.32;;;4.50;99.90;;;;;;5093725;28;20198;-67
2022/12/06 07:02:38;;;;;;;5.82;4.07;;;4.50;99.90;;;;;;5087729;28;20211;-67
2022/12/06 07:05:07;;;;;;;5.80;4.28;;;4.50;99.90;;;;;;5089089;28;20211;-67
2022/12/06 07:07:35;;;;;;;4.30;3.90;;;4.40;99.90;;;;;;5082464;28;21708;-67
2022/12/06 07:10:03;;;;;;;7.07;5.30;;;4.50;99.90;;;;;;5080830;28;20212;-67
2022/12/06 07:12:32;;;;;;;5.10;4.60;;;4.50;99.90;;;;;;5083556;28;20557;-67
2022/12/06 07:15:00;;;;;;;5.80;4.55;;;4.50;99.90;;;;;;5083061;28;20579;-68
2022/12/06 07:17:27;;;;;;;6.05;4.55;;;4.40;99.90;;;;;;5080464;28;20220;-67
2022/12/06 07:19:55;;;;;;;6.97;4.90;;;4.40;99.90;;;;;;5082272;28;20203;-67
2022/12/06 07:22:23;;;;;;;6.45;5.55;;;4.50;99.90;;;;;;5084833;28;20228;-67
2022/12/06 07:24:51;;;;;;;7.10;4.97;;;4.50;99.90;;;;;;5081387;28;20203;-67
2022/12/06 07:27:19;;;;;;;7.63;6.20;;;4.50;99.90;;;;;;5079707;28;20224;-66
2022/12/06 07:29:48;;;;;;;7.68;5.57;;;4.40;99.90;;;;;;5087930;28;20195;-68
2022/12/06 07:32:16;;;;;;;8.57;6.32;;;4.40;99.90;;;;;;5081903;28;20199;-69
2022/12/06 07:34:44;;;;;;;5.13;4.50;;;4.60;99.90;;;;;;5082860;28;20223;-67
2022/12/06 07:37:13;;;;;;;6.43;5.43;;;4.50;99.90;;;;;;5087621;28;20586;-67
2022/12/06 07:39:42;;;;;;;8.43;6.35;;;4.50;99.90;;;;;;5072314;28;20751;-68
2022/12/06 07:45:04;;;;;;;9.80;7.68;;;4.50;99.90;;;;;;5082795;28;20233;-68
2022/12/06 07:47:34;;;;;;;7.93;6.07;;;4.50;99.90;;;;;;5082235;28;20588;-68
2022/12/06 07:50:02;;;;;;;8.30;6.32;;;4.60;99.90;;;;;;5084163;28;20211;-68
2022/12/06 07:52:32;;;;;;;8.27;6.65;;;4.60;99.90;;;;;;5084907;28;20207;-68
2022/12/06 07:54:59;;;;;;;7.50;6.72;;;4.60;99.90;;;;;;5076431;28;20235;-68
2022/12/06 07:57:27;;;;;;;10.73;6.50;;;4.50;99.90;;;;;;5075962;28;20215;-68
2022/12/06 07:59:57;;;;;;;7.60;5.78;;;4.60;99.90;;;;;;5084926;28;20202;-68
2022/12/06 08:02:27;;;;;;;5.07;4.57;;;4.60;99.90;;;;;;5080457;28;20199;-67
2022/12/06 08:04:55;;;;;;;5.88;5.22;;;4.50;99.90;;;;;;5083088;28;20204;-67
2022/12/06 08:07:23;;;;;;;5.78;5.18;;;4.50;99.90;;;;;;5074867;28;20193;-67
2022/12/06 08:09:52;;;;;;;6.75;5.80;;;4.50;99.90;;;;;;5089127;28;20206;-67
2022/12/06 08:12:20;;;;;;;6.10;4.60;;;4.50;99.90;;;;;;5083342;28;20603;-68
2022/12/06 08:14:49;;;;;;;6.50;5.75;;;4.40;99.90;;;;;;5086898;28;20192;-68
2022/12/06 08:17:18;;;;;;;7.15;5.80;;;4.40;99.90;;;;;;5088474;28;20242;-68
2022/12/06 08:19:46;;;;;;;7.45;5.00;;;4.50;99.90;;;;;;5082626;28;20203;-68
2022/12/06 08:22:14;;;;;;;6.93;5.35;;;4.60;99.90;;;;;;5075912;28;20230;-68
2022/12/06 08:24:43;;;;;;;6.05;5.45;;;4.60;99.90;;;;;;5082229;28;20207;-68
2022/12/06 08:27:10;;;;;;;5.75;5.25;;;4.60;99.90;;;;;;5085450;28;20720;-68
2022/12/06 08:29:39;;;;;;;4.82;4.35;;;4.50;99.90;;;;;;5071821;28;20662;-68
2022/12/06 08:32:06;;;;;;;6.30;5.57;;;4.60;99.90;;;;;;5085616;28;20203;-68
2022/12/06 08:34:36;;;;;;;6.05;4.47;;;4.60;99.90;;;;;;5079746;28;20199;-68
2022/12/06 08:37:03;;;;;;;5.90;4.82;;;4.60;99.90;;;;;;5085700;28;20670;-68
2022/12/06 08:39:31;;;;;;;5.38;4.72;;;4.70;99.90;;;;;;5080749;28;20195;-68
2022/12/06 08:42:01;;;;;;;5.57;5.05;;;4.70;99.90;;;;;;5065983;28;20192;-68
2022/12/06 08:44:31;;;;;;;6.07;4.90;;;4.60;99.90;;;;;;5085080;28;20195;-68
2022/12/06 08:47:00;;;;;;;5.38;4.88;;;4.60;99.90;;;;;;5082480;28;20187;-68
2022/12/06 08:49:29;;;;;;;4.55;4.20;;;4.60;99.90;;;;;;5083088;28;20208;-68
2022/12/06 08:52:00;;;;;;;6.72;4.95;;;4.60;99.90;;;;;;5082795;28;20196;-68
2022/12/06 08:54:28;;;;;;;6.80;5.15;;;4.70;99.90;;;;;;5082919;28;20191;-67
2022/12/06 08:56:56;;;;;;;7.38;5.60;;;4.80;99.90;;;;;;5081254;28;20287;-67
2022/12/06 08:59:24;;;;;;;6.07;4.28;;;4.80;99.90;;;;;;5091901;28;20200;-67
2022/12/06 09:01:52;;;;;;;8.05;5.40;;;4.80;99.90;;;;;;5072308;28;20219;-67
2022/12/06 09:04:20;;;;;;;6.70;6.00;;;4.80;99.90;;;;;;5075534;28;20211;-67
2022/12/06 09:06:48;;;;;;;5.53;5.03;;;4.80;99.90;;;;;;5082388;28;20559;-67
2022/12/06 09:09:18;;;;;;;5.45;4.95;;;4.90;99.90;;;;;;5082352;28;20219;-67
2022/12/06 09:11:49;;;;;;;7.47;4.40;;;4.90;99.90;;;;;;5086471;28;20589;-67
2022/12/06 09:14:18;;;;;;;4.40;4.00;;;5.00;99.90;;;;;;5086087;28;20191;-67
2022/12/06 09:16:46;;;;;;;5.38;4.75;;;5.00;99.90;;;;;;5079975;28;20211;-67
2022/12/06 09:19:15;;;;;;;14.93;7.95;;;5.00;99.90;;;;;;5089043;28;20207;-67
2022/12/06 09:21:45;;;;;;;8.98;5.70;;;5.00;99.90;;;;;;5085498;28;20199;-68
2022/12/06 09:24:14;;;;;;;7.25;6.55;;;5.00;99.90;;;;;;5073370;28;20200;-66
2022/12/06 09:26:43;;;;;;;13.93;10.90;;;4.90;99.90;;;;;;5083481;28;20670;-67
2022/12/06 09:29:12;;;;;;;12.85;8.40;;;4.90;99.90;;;;;;5084626;28;20649;-67
2022/12/06 09:31:40;;;;;;;17.92;13.60;;;4.80;99.90;;;;;;5086105;28;20191;-67
2022/12/06 09:34:09;;;;;;;10.20;7.28;;;4.90;99.90;;;;;;5081148;28;20637;-67
2022/12/06 09:36:42;;;;;;;8.07;6.75;;;4.90;99.90;;;;;;5092950;28;20233;-67
2022/12/06 09:39:15;;;;;;;7.63;6.28;;;5.00;99.90;;;;;;5075901;28;20188;-68
2022/12/06 09:42:22;;;;;;;7.40;6.03;;;5.10;99.90;;;;;;5086388;28;20196;-68
2022/12/06 09:45:12;;;;;;;5.93;5.43;;;5.10;99.90;;;;;;5080814;28;20192;-68
2022/12/06 09:47:54;;;;;;;5.30;4.72;;;5.00;99.90;;;;;;5081267;28;20200;-68
2022/12/06 09:50:31;;;;;;;5.28;4.88;;;5.10;99.90;;;;;;5091312;28;20207;-68
2022/12/06 09:53:13;;;;;;;6.30;5.70;;;5.20;99.90;;;;;;5084632;28;20195;-68
2022/12/06 09:55:54;;;;;;;6.95;6.07;;;5.30;99.90;;;;;;5087179;28;20214;-68
2022/12/06 09:58:37;;;;;;;10.75;9.15;;;5.30;99.90;;;;;;5074484;28;20215;-68
2022/12/06 10:01:17;;;;;;;4.72;4.38;;;5.30;99.90;;;;;;5074802;28;20195;-68
2022/12/06 10:04:01;;;;;;;3.70;3.38;;;5.30;99.90;;;;;;5081155;28;20195;-68
2022/12/06 10:06:38;;;;;;;4.30;3.90;;;5.40;99.90;;;;;;5088907;28;20195;-68
2022/12/06 10:09:21;;;;;;;5.15;4.68;;;5.40;99.90;;;;;;5071282;28;20184;-68
2022/12/06 10:12:09;;;;;;;4.18;3.85;;;5.30;99.90;;;;;;5080510;28;20206;-68
2022/12/06 10:15:02;;;;;;;3.92;3.60;;;5.50;99.90;;;;;;5069408;28;20207;-68
2022/12/06 10:17:39;;;;;;;3.85;3.55;;;5.50;99.90;;;;;;5092782;28;20215;-68
2022/12/06 10:20:21;;;;;;;4.95;4.55;;;5.50;99.90;;;;;;5090651;28;20559;-67
2022/12/06 10:23:01;;;;;;;5.10;4.60;;;5.40;99.90;;;;;;5085556;28;20231;-68
2022/12/06 10:25:39;;;;;;;7.10;4.82;;;5.30;99.90;;;;;;5084318;28;20215;-67
2022/12/06 10:28:12;;;;;;;5.47;4.95;;;5.30;99.90;;;;;;5078127;28;20187;-67
2022/12/06 10:30:50;;;;;;;5.13;4.72;;;5.30;99.90;;;;;;5088798;28;20276;-67
2022/12/06 10:33:26;;;;;;;8.30;6.45;;;5.40;99.90;;;;;;5073058;28;20199;-67
2022/12/06 10:35:59;;;;;;;5.50;5.00;;;5.50;99.90;;;;;;5077966;28;20191;-67
2022/12/06 10:38:32;;;;;;;6.38;4.88;;;5.50;99.90;;;;;;5089972;28;20210;-67
2022/12/06 10:41:06;;;;;;;8.50;6.70;;;5.40;99.90;;;;;;5092768;28;20680;-67
2022/12/06 10:43:46;;;;;;;8.48;6.20;;;5.40;99.90;;;;;;5093139;28;20263;-69
2022/12/06 10:49:19;;;;;;;11.82;4.65;;;5.60;99.90;;;;;;5073813;28;20199;-68
2022/12/06 10:51:53;;;;;;;3.90;3.38;;;5.60;99.90;;;;;;5071202;28;20196;-68
2022/12/06 10:54:29;;;;;;;4.35;3.92;;;5.60;99.90;;;;;;5078904;28;20522;-68
2022/12/06 10:57:02;;;;;;;3.95;3.65;;;5.70;99.90;;;;;;5089982;28;20195;-68
2022/12/06 10:59:36;;;;;;;4.18;3.78;;;5.60;99.90;;;;;;5072321;28;20693;-68
2022/12/06 11:02:19;;;;;;;3.80;3.50;;;5.60;99.90;;;;;;5083140;28;20188;-68
2022/12/06 11:04:48;;;;;;;3.72;3.50;;;5.80;99.90;;;;;;5075384;28;20202;-68
2022/12/06 11:07:20;;;;;;;3.60;3.30;;;5.70;99.90;;;;;;5083029;28;20203;-68
2022/12/06 11:09:51;;;;;;;2.70;2.50;;;5.70;99.90;;;;;;5096377;28;20187;-69
2022/12/06 11:12:25;;;;;;;4.20;3.90;;;5.70;99.90;;;;;;5073085;28;20192;-68
2022/12/06 11:14:57;;;;;;;4.25;3.95;;;5.70;99.90;;;;;;5081931;28;20194;-69
2022/12/06 11:17:29;;;;;;;3.55;3.25;;;5.60;99.90;;;;;;5074618;28;20195;-67
2022/12/06 11:20:03;;;;;;;4.32;3.67;;;5.60;99.90;;;;;;5078126;28;20196;-69
2022/12/06 11:22:38;;;;;;;3.70;3.40;;;5.50;99.90;;;;;;5093702;28;20215;-68
2022/12/06 11:25:15;;;;;;;4.68;3.85;;;5.50;99.90;;;;;;5046171;28;20195;-68
2022/12/06 11:27:49;;;;;;;5.03;3.72;;;5.50;99.90;;;;;;5086136;28;20187;-68
2022/12/06 11:30:18;;;;;;;4.40;4.00;;;5.60;99.90;;;;;;5076087;28;20639;-68
2022/12/06 11:32:50;;;;;;;4.75;4.35;;;5.60;99.90;;;;;;5076114;28;20215;-69
2022/12/06 11:35:23;;;;;;;5.63;4.30;;;5.70;99.90;;;;;;5076618;28;20634;-68
2022/12/06 11:37:56;;;;;;;4.15;3.85;;;5.90;99.90;;;;;;5077626;28;20223;-69
2022/12/06 11:40:26;;;;;;;5.10;4.60;;;6.00;99.90;;;;;;5085509;28;20249;-68
2022/12/06 11:42:57;;;;;;;4.40;4.00;;;6.00;99.90;;;;;;5078065;28;20204;-68
2022/12/06 11:45:27;;;;;;;10.90;4.85;;;6.10;99.90;;;;;;5075791;28;20208;-69
2022/12/06 11:47:58;;;;;;;3.67;3.47;;;6.00;99.90;;;;;;5087928;28;20204;-68
2022/12/06 11:50:29;;;;;;;6.03;5.30;;;6.00;99.90;;;;;;5095287;28;20653;-68
2022/12/06 11:53:02;;;;;;;7.97;4.57;;;6.00;99.90;;;;;;5091457;28;20650;-69
2022/12/06 11:55:35;;;;;;;5.50;4.25;;;6.00;99.90;;;;;;5077573;28;20859;-68
2022/12/06 11:58:08;;;;;;;4.22;3.83;;;6.00;99.90;;;;;;5088163;28;20211;-68
2022/12/06 12:00:36;;;;;;;3.78;3.47;;;6.20;99.90;;;;;;5081227;28;20199;-68
2022/12/06 12:03:28;;;;;;;4.35;4.05;;;6.00;99.90;;;;;;5087469;28;20650;-68
2022/12/06 12:06:08;;;;;;;3.25;3.05;;;6.10;99.90;;;;;;5082610;28;20184;-68
2022/12/06 12:08:38;;;;;;;5.22;3.63;;;6.10;99.90;;;;;;5086971;28;20196;-68
2022/12/06 12:11:06;;;;;;;3.35;3.13;;;6.20;99.90;;;;;;5081665;28;20207;-68
2022/12/06 12:13:44;;;;;;;3.33;3.08;;;6.20;99.90;;;;;;5084016;28;20666;-67
2022/12/06 12:16:17;;;;;;;3.38;3.13;;;6.20;99.90;;;;;;5093938;28;20562;-68
2022/12/06 12:18:57;;;;;;;4.97;3.88;;;6.30;99.90;;;;;;5074172;28;20208;-68
2022/12/06 12:21:40;;;;;;;5.47;3.85;;;6.50;99.90;;;;;;5085116;28;20191;-68
2022/12/06 12:24:41;;;;;;;4.38;4.00;;;6.60;99.90;;;;;;5095088;28;20206;-68
2022/12/06 12:27:41;;;;;;;2.85;2.65;;;6.50;99.90;;;;;;5080327;28;20632;-67
2022/12/06 12:30:24;;;;;;;3.38;3.13;;;6.30;99.90;;;;;;5084970;28;20207;-68
2022/12/06 12:33:10;;;;;;;3.67;3.38;;;6.10;99.90;;;;;;5080852;28;20234;-68
2022/12/06 12:35:41;;;;;;;4.20;3.35;;;6.20;99.90;;;;;;5083414;28;20265;-68
2022/12/06 12:38:16;;;;;;;3.92;3.65;;;6.30;99.90;;;;;;5082376;28;20327;-67
2022/12/06 12:40:47;;;;;;;3.53;3.22;;;6.40;99.90;;;;;;5082032;28;20254;-67
2022/12/06 12:43:20;;;;;;;3.38;3.03;;;6.40;99.90;;;;;;5082864;28;20183;-70
2022/12/06 12:46:07;;;;;;;3.30;3.00;;;6.30;99.90;;;;;;5085765;28;20180;-68
2022/12/06 12:48:36;;;;;;;2.88;2.67;;;6.30;99.90;;;;;;5081543;28;20210;-68
2022/12/06 12:51:18;;;;;;;4.13;3.60;;;6.30;99.90;;;;;;5086006;28;20649;-68
2022/12/06 12:53:48;;;;;;;3.10;2.88;;;6.30;99.90;;;;;;5082189;28;20203;-68
2022/12/06 12:56:18;;;;;;;3.38;3.08;;;6.30;99.90;;;;;;5091405;28;20203;-68
2022/12/06 12:58:47;;;;;;;3.67;3.38;;;6.30;99.90;;;;;;5090280;28;20594;-68
2022/12/06 13:01:28;;;;;;;5.18;3.97;;;6.30;99.90;;;;;;5093235;28;20199;-68
2022/12/06 13:04:02;;;;;;;3.70;3.50;;;6.30;99.90;;;;;;5077911;28;20206;-68
2022/12/06 13:06:40;;;;;;;3.13;2.80;;;6.40;99.90;;;;;;5090497;28;20285;-68
2022/12/06 13:09:19;;;;;;;2.92;2.72;;;6.40;99.90;;;;;;5075655;28;20187;-68
2022/12/06 13:11:51;;;;;;;4.10;3.80;;;6.30;99.90;;;;;;5079680;28;20206;-68
2022/12/06 13:14:21;;;;;;;3.95;3.63;;;6.30;99.90;;;;;;5078113;28;20207;-69
2022/12/06 13:16:52;;;;;;;4.05;2.90;;;6.40;99.90;;;;;;5083865;28;20200;-68
2022/12/06 13:19:24;;;;;;;4.00;3.70;;;6.50;99.90;;;;;;5087368;28;20728;-67
2022/12/06 13:21:54;;;;;;;3.58;3.33;;;6.40;99.90;;;;;;5082530;28;20548;-67
2022/12/06 13:24:26;;;;;;;4.00;3.70;;;6.40;99.90;;;;;;5063709;28;20192;-69
2022/12/06 13:26:58;;;;;;;3.78;3.38;;;6.30;99.90;;;;;;5085062;28;20700;-68
2022/12/06 13:29:31;;;;;;;4.75;3.30;;;6.20;99.90;;;;;;5092768;28;20188;-68
2022/12/06 13:32:05;;;;;;;3.88;2.90;;;6.30;99.90;;;;;;5090031;28;20192;-67
2022/12/06 13:34:37;;;;;;;4.15;3.85;;;6.30;99.90;;;;;;5078069;28;20629;-68
2022/12/06 13:37:26;;;;;;;3.50;3.20;;;6.30;99.90;;;;;;5063866;28;20200;-66
2022/12/06 13:39:55;;;;;;;4.03;3.42;;;6.40;99.90;;;;;;5083496;28;20211;-68
2022/12/06 13:42:39;;;;;;;3.22;3.03;;;6.40;99.90;;;;;;5074811;28;20203;-66
2022/12/06 13:45:37;;;;;;;4.13;3.72;;;6.40;99.90;;;;;;5074786;28;20199;-68